createdAt,value
2024-05-09T00:00:40.759Z,18.17
2024-05-09T00:03:09.935Z,37.40
2024-05-09T00:05:38.182Z,23.10
2024-05-09T00:08:06.560Z,18.25
2024-05-09T00:10:37.231Z,16.60
2024-05-09T00:13:07.882Z,18.10
2024-05-09T00:15:35.824Z,21.95
2024-05-09T00:18:04.540Z,18.77
2024-05-09T00:20:38.204Z,36.30
2024-05-09T00:23:09.175Z,36.50
2024-05-09T00:25:37.002Z,68.80
2024-05-09T00:28:04.005Z,47.10
2024-05-09T00:30:34.700Z,29.90
2024-05-09T00:33:05.342Z,39.33
2024-05-09T00:35:33.359Z,42.17
2024-05-09T00:38:00.460Z,35.92
2024-05-09T00:40:37.659Z,29.17
2024-05-09T00:43:07.541Z,43.33
2024-05-09T00:45:35.894Z,19.65
2024-05-09T00:48:08.837Z,25.58
2024-05-09T00:50:41.201Z,27.65
2024-05-09T00:53:11.779Z,34.15
2024-05-09T00:55:40.238Z,21.58
2024-05-09T00:58:09.260Z,47.60
2024-05-09T01:00:39.808Z,54.45
2024-05-09T01:03:10.035Z,36.90
2024-05-09T01:05:39.763Z,40.33
2024-05-09T01:08:07.900Z,33.10
2024-05-09T01:10:36.276Z,27.50
2024-05-09T01:13:07.182Z,29.17
2024-05-09T01:15:35.343Z,32.83
2024-05-09T01:18:09.845Z,66.13
2024-05-09T01:20:42.006Z,30.63
2024-05-09T01:23:17.515Z,56.95
2024-05-09T01:25:45.146Z,28.00
2024-05-09T01:28:12.497Z,31.00
2024-05-09T01:30:43.758Z,24.48
2024-05-09T01:33:12.113Z,16.10
2024-05-09T01:35:42.000Z,19.42
2024-05-09T01:38:12.235Z,16.20
2024-05-09T01:40:40.337Z,16.52
2024-05-09T01:43:11.365Z,15.60
2024-05-09T01:45:42.176Z,22.38
2024-05-09T01:48:10.765Z,31.80
2024-05-09T01:50:41.576Z,25.92
2024-05-09T01:53:11.226Z,22.70
2024-05-09T01:55:38.552Z,33.78
2024-05-09T01:58:05.760Z,22.48
2024-05-09T02:00:39.285Z,21.17
2024-05-09T02:03:11.768Z,19.00
2024-05-09T02:05:41.768Z,16.80
2024-05-09T02:08:14.845Z,15.52
2024-05-09T02:10:51.830Z,13.13
2024-05-09T02:13:18.820Z,14.40
2024-05-09T02:15:45.917Z,13.77
2024-05-09T02:18:13.287Z,14.93
2024-05-09T02:20:42.194Z,16.40
2024-05-09T02:23:10.282Z,14.88
2024-05-09T02:25:37.324Z,14.18
2024-05-09T02:28:04.367Z,12.85
2024-05-09T02:30:39.368Z,13.35
2024-05-09T02:33:13.549Z,12.95
2024-05-09T02:35:41.933Z,12.60
2024-05-09T02:38:09.553Z,11.15
2024-05-09T02:40:38.772Z,10.48
2024-05-09T02:43:08.534Z,11.23
2024-05-09T02:45:36.632Z,11.73
2024-05-09T02:48:03.905Z,11.88
2024-05-09T02:50:37.795Z,13.88
2024-05-09T02:53:14.020Z,12.63
2024-05-09T02:55:42.441Z,13.23
2024-05-09T02:58:10.479Z,10.77
2024-05-09T03:00:40.778Z,13.00
2024-05-09T03:03:12.202Z,10.52
2024-05-09T03:05:41.488Z,11.13
2024-05-09T03:08:08.685Z,10.50
2024-05-09T03:10:37.988Z,10.50
2024-05-09T03:13:11.727Z,11.65
2024-05-09T03:15:38.919Z,11.25
2024-05-09T03:18:06.739Z,10.02
2024-05-09T03:20:35.842Z,10.55
2024-05-09T03:23:05.356Z,10.52
2024-05-09T03:25:32.687Z,10.02
2024-05-09T03:27:59.780Z,11.57
2024-05-09T03:30:38.722Z,10.80
2024-05-09T03:33:13.878Z,11.90
2024-05-09T03:35:41.972Z,12.10
2024-05-09T03:38:09.294Z,13.90
2024-05-09T03:40:36.323Z,15.52
2024-05-09T03:43:03.659Z,11.77
2024-05-09T03:45:30.493Z,12.00
2024-05-09T03:47:57.604Z,12.80
2024-05-09T03:50:30.208Z,15.02
2024-05-09T03:53:02.078Z,19.92
2024-05-09T03:55:29.966Z,16.98
2024-05-09T03:57:57.215Z,15.82
2024-05-09T04:00:31.316Z,16.30
2024-05-09T04:03:06.389Z,14.65
2024-05-09T04:05:35.228Z,16.40
2024-05-09T04:08:02.409Z,16.10
2024-05-09T04:10:33.593Z,13.05
2024-05-09T04:13:02.303Z,12.50
2024-05-09T04:15:29.345Z,13.55
2024-05-09T04:17:56.485Z,12.98
2024-05-09T04:20:35.564Z,13.73
2024-05-09T04:23:14.564Z,13.27
2024-05-09T04:25:44.068Z,10.73
2024-05-09T04:28:11.304Z,10.82
2024-05-09T04:30:40.793Z,13.38
2024-05-09T04:33:12.166Z,13.77
2024-05-09T04:35:44.364Z,12.80
2024-05-09T04:38:15.606Z,11.45
2024-05-09T04:40:43.024Z,19.48
2024-05-09T04:43:19.103Z,17.10
2024-05-09T04:45:46.253Z,18.05
2024-05-09T04:48:13.581Z,17.33
2024-05-09T04:50:40.598Z,18.10
2024-05-09T04:53:10.107Z,13.70
2024-05-09T04:55:38.343Z,16.90
2024-05-09T04:58:08.638Z,32.72
2024-05-09T05:00:37.907Z,24.25
2024-05-09T05:03:12.908Z,15.80
2024-05-09T05:05:42.296Z,19.67
2024-05-09T05:08:17.423Z,17.10
2024-05-09T05:10:46.578Z,17.02
2024-05-09T05:13:22.372Z,10.20
2024-05-09T05:15:52.162Z,12.43
2024-05-09T05:18:19.552Z,15.48
2024-05-09T05:20:46.978Z,13.18
2024-05-09T05:23:16.440Z,12.15
2024-05-09T05:25:44.009Z,14.27
2024-05-09T05:28:11.402Z,13.93
2024-05-09T05:30:38.969Z,11.50
2024-05-09T05:33:07.014Z,13.80
2024-05-09T05:35:34.848Z,12.95
2024-05-09T05:38:02.869Z,10.68
2024-05-09T05:40:36.431Z,11.30
2024-05-09T05:43:05.943Z,9.68
2024-05-09T05:45:32.752Z,12.43
2024-05-09T05:48:00.281Z,12.85
2024-05-09T05:50:34.078Z,13.48
2024-05-09T05:53:03.753Z,11.70
2024-05-09T05:55:30.585Z,16.70
2024-05-09T05:57:57.432Z,12.60
2024-05-09T06:02:54.065Z,19.15
2024-05-09T06:05:21.131Z,12.38
2024-05-09T06:07:48.072Z,13.00
2024-05-09T06:10:21.314Z,11.23
2024-05-09T06:12:52.482Z,9.98
2024-05-09T06:15:19.268Z,11.77
2024-05-09T06:17:46.738Z,9.95
2024-05-09T06:20:20.536Z,11.45
2024-05-09T06:22:54.525Z,10.07
2024-05-09T06:25:21.332Z,8.60
2024-05-09T06:27:48.168Z,8.80
2024-05-09T06:30:25.617Z,8.88
2024-05-09T06:32:57.739Z,9.18
2024-05-09T06:35:25.105Z,10.63
2024-05-09T06:37:51.994Z,9.07
2024-05-09T06:40:25.469Z,9.95
2024-05-09T06:42:57.762Z,10.00
2024-05-09T06:45:24.571Z,8.23
2024-05-09T06:47:51.534Z,9.73
2024-05-09T06:50:23.909Z,7.32
2024-05-09T06:52:55.054Z,8.45
2024-05-09T06:55:22.350Z,8.73
2024-05-09T06:57:49.346Z,9.38
2024-05-09T07:00:23.037Z,9.43
2024-05-09T07:02:59.065Z,7.72
2024-05-09T07:05:27.100Z,12.00
2024-05-09T07:07:53.971Z,8.32
2024-05-09T07:10:28.648Z,8.55
2024-05-09T07:12:59.973Z,7.60
2024-05-09T07:15:26.845Z,10.27
2024-05-09T07:17:53.879Z,9.90
2024-05-09T07:20:31.692Z,6.88
2024-05-09T07:23:03.052Z,7.65
2024-05-09T07:25:30.319Z,8.88
2024-05-09T07:27:57.316Z,9.35
2024-05-09T07:30:32.602Z,8.57
2024-05-09T07:33:02.318Z,8.05
2024-05-09T07:35:30.012Z,8.05
2024-05-09T07:37:57.249Z,6.82
2024-05-09T07:40:36.123Z,8.02
2024-05-09T07:43:05.051Z,9.18
2024-05-09T07:45:48.214Z,7.55
2024-05-09T07:52:38.322Z,8.98
2024-05-09T07:53:48.362Z,7.75
2024-05-09T07:56:20.370Z,8.07
2024-05-09T07:58:51.019Z,8.75
2024-05-09T08:01:18.234Z,8.95
2024-05-09T08:03:45.429Z,8.30
2024-05-09T08:06:12.396Z,8.65
2024-05-09T08:08:39.292Z,8.48
2024-05-09T08:11:06.768Z,9.00
2024-05-09T08:13:33.687Z,9.30
2024-05-09T08:16:00.751Z,10.00
2024-05-09T08:18:28.999Z,8.45
2024-05-09T08:20:56.080Z,7.72
2024-05-09T08:23:24.497Z,8.10
2024-05-09T08:25:55.420Z,7.88
2024-05-09T08:28:22.320Z,8.65
2024-05-09T08:30:49.916Z,9.70
2024-05-09T08:33:16.977Z,8.27
2024-05-09T08:35:43.916Z,7.47
2024-05-09T08:38:10.893Z,9.50
2024-05-09T08:40:38.417Z,8.05
2024-05-09T08:43:11.398Z,9.10
2024-05-09T08:45:43.891Z,9.98
2024-05-09T08:48:15.210Z,8.05
2024-05-09T08:50:44.918Z,9.48
2024-05-09T08:53:13.084Z,8.07
2024-05-09T08:55:43.236Z,9.68
2024-05-09T08:58:16.189Z,8.32
2024-05-09T09:00:45.644Z,8.50
2024-05-09T09:03:16.109Z,8.18
2024-05-09T09:05:56.352Z,9.07
2024-05-09T09:08:23.357Z,8.85
2024-05-09T09:10:54.202Z,8.95
2024-05-09T09:13:21.163Z,8.77
2024-05-09T09:15:49.135Z,8.70
2024-05-09T09:18:17.472Z,9.25
2024-05-09T09:20:44.798Z,8.10
2024-05-09T09:23:11.757Z,8.32
2024-05-09T09:25:42.264Z,7.85
2024-05-09T09:28:09.747Z,8.43
2024-05-09T09:30:40.940Z,8.38
2024-05-09T09:33:10.151Z,9.90
2024-05-09T09:35:40.114Z,12.38
2024-05-09T09:38:08.002Z,7.80
2024-05-09T09:40:40.737Z,7.50
2024-05-09T09:43:15.477Z,9.75
2024-05-09T09:45:44.316Z,8.10
2024-05-09T09:48:14.712Z,9.57
2024-05-09T09:50:42.382Z,9.18
2024-05-09T09:53:10.480Z,7.80
2024-05-09T09:55:39.829Z,8.18
2024-05-09T09:58:09.676Z,9.35
2024-05-09T10:00:39.144Z,8.13
2024-05-09T10:03:06.925Z,7.55
2024-05-09T10:05:34.530Z,8.88
2024-05-09T10:08:10.656Z,7.13
2024-05-09T10:10:47.141Z,6.05
2024-05-09T10:13:14.455Z,6.93
2024-05-09T10:15:51.975Z,6.20
2024-05-09T10:18:27.109Z,10.07
2024-05-09T10:20:56.333Z,9.18
2024-05-09T10:23:27.022Z,8.15
2024-05-09T10:26:03.811Z,7.85
2024-05-09T10:28:32.602Z,5.35
2024-05-09T10:31:13.387Z,5.68
2024-05-09T10:33:46.936Z,5.28
2024-05-09T10:36:22.158Z,4.95
2024-05-09T10:38:50.069Z,5.47
2024-05-09T10:41:17.716Z,4.53
2024-05-09T10:43:44.804Z,5.22
2024-05-09T10:46:12.381Z,4.30
2024-05-09T10:48:41.708Z,6.82
2024-05-09T10:51:09.211Z,8.02
2024-05-09T10:53:46.074Z,5.53
2024-05-09T10:56:17.142Z,4.95
2024-05-09T10:58:44.608Z,6.07
2024-05-09T11:01:13.460Z,6.35
2024-05-09T11:03:41.000Z,5.32
2024-05-09T11:06:09.929Z,4.53
2024-05-09T11:08:37.905Z,5.45
2024-05-09T11:11:08.097Z,4.70
2024-05-09T11:13:39.738Z,5.55
2024-05-09T11:16:19.394Z,4.00
2024-05-09T11:18:57.302Z,5.18
2024-05-09T11:21:25.268Z,5.10
2024-05-09T11:23:52.403Z,5.15
2024-05-09T11:26:21.699Z,6.78
2024-05-09T11:28:50.558Z,7.57
2024-05-09T11:31:18.035Z,7.70
2024-05-09T11:33:47.031Z,8.82
2024-05-09T11:36:14.594Z,8.13
2024-05-09T11:38:41.622Z,7.63
2024-05-09T11:41:08.716Z,8.65
2024-05-09T11:43:35.631Z,7.38
2024-05-09T11:46:03.846Z,10.77
2024-05-09T11:48:31.709Z,12.38
2024-05-09T11:50:58.909Z,9.60
2024-05-09T11:53:25.732Z,13.45
2024-05-09T11:55:52.684Z,9.30
2024-05-09T11:58:21.603Z,13.27
2024-05-09T12:00:48.606Z,9.23
2024-05-09T12:03:15.558Z,7.57
2024-05-09T12:05:42.676Z,7.03
2024-05-09T12:08:09.792Z,9.30
2024-05-09T12:10:37.190Z,10.05
2024-05-09T12:13:06.544Z,9.82
2024-05-09T12:15:37.563Z,11.35
2024-05-09T12:18:06.175Z,8.95
2024-05-09T12:20:37.635Z,11.38
2024-05-09T12:23:07.392Z,9.85
2024-05-09T12:25:34.973Z,17.55
2024-05-09T12:28:02.003Z,8.68
2024-05-09T12:30:36.325Z,8.07
2024-05-09T12:33:08.303Z,11.38
2024-05-09T12:35:35.498Z,9.25
2024-05-09T12:38:02.713Z,8.27
2024-05-09T12:40:36.396Z,11.27
2024-05-09T12:43:06.991Z,10.80
2024-05-09T12:45:34.309Z,9.65
2024-05-09T12:48:01.377Z,8.75
2024-05-09T12:50:32.727Z,9.65
2024-05-09T12:53:02.182Z,8.63
2024-05-09T12:55:33.976Z,8.90
2024-05-09T12:58:07.963Z,8.30
2024-05-09T13:00:35.108Z,8.57
2024-05-09T13:03:02.217Z,10.35
2024-05-09T13:05:29.699Z,11.05
2024-05-09T13:07:57.282Z,10.55
2024-05-09T13:10:31.262Z,7.63
2024-05-09T13:13:00.921Z,8.95
2024-05-09T13:15:28.640Z,8.65
2024-05-09T13:17:58.439Z,7.45
2024-05-09T13:20:32.801Z,15.68
2024-05-09T13:23:03.068Z,10.13
2024-05-09T13:25:30.004Z,17.48
2024-05-09T13:27:57.392Z,14.35
2024-05-09T13:32:54.839Z,8.38
2024-05-09T13:35:21.811Z,10.18
2024-05-09T13:37:48.653Z,10.82
2024-05-09T13:40:23.226Z,8.40
2024-05-09T13:42:54.180Z,8.52
2024-05-09T13:45:21.004Z,8.20
2024-05-09T13:47:48.047Z,8.40
2024-05-09T13:50:27.548Z,8.88
2024-05-09T13:53:00.128Z,9.13
2024-05-09T13:55:26.936Z,7.25
2024-05-09T13:57:54.075Z,27.30
2024-05-09T14:02:50.650Z,7.80
2024-05-09T14:05:17.666Z,7.28
2024-05-09T14:07:44.639Z,6.88
2024-05-09T14:10:16.065Z,9.27
2024-05-09T14:12:49.829Z,7.13
2024-05-09T14:15:16.638Z,6.53
2024-05-09T14:17:43.559Z,6.75
2024-05-09T14:20:14.085Z,7.05
2024-05-09T14:22:47.179Z,7.28
2024-05-09T14:25:14.635Z,6.15
2024-05-09T14:27:41.476Z,5.40
2024-05-09T14:30:18.075Z,6.15
2024-05-09T14:32:52.520Z,6.80
2024-05-09T14:35:19.417Z,19.35
2024-05-09T14:37:46.305Z,10.98
2024-05-09T14:40:30.404Z,8.20
2024-05-09T14:43:03.248Z,26.95
2024-05-09T14:45:30.352Z,11.00
2024-05-09T14:47:57.524Z,9.38
2024-05-09T14:50:34.429Z,8.23
2024-05-09T14:53:04.545Z,8.45
2024-05-09T14:55:31.425Z,6.78
2024-05-09T14:57:58.344Z,8.88
2024-05-09T15:00:29.183Z,7.60
2024-05-09T15:03:00.721Z,7.32
2024-05-09T15:05:27.736Z,10.45
2024-05-09T15:07:57.619Z,10.98
2024-05-09T15:10:33.388Z,10.70
2024-05-09T15:13:02.742Z,11.23
2024-05-09T15:15:29.786Z,11.05
2024-05-09T15:17:56.991Z,10.80
2024-05-09T15:20:32.951Z,13.70
2024-05-09T15:23:02.911Z,17.02
2024-05-09T15:25:29.933Z,32.67
2024-05-09T15:27:57.223Z,22.38
2024-05-09T15:30:30.323Z,25.58
2024-05-09T15:33:00.688Z,22.60
2024-05-09T15:35:27.890Z,25.80
2024-05-09T15:37:55.142Z,22.48
2024-05-09T15:40:31.174Z,23.90
2024-05-09T15:43:05.823Z,22.20
2024-05-09T15:45:33.182Z,19.10
2024-05-09T15:48:00.792Z,22.42
2024-05-09T15:50:36.512Z,41.90
2024-05-09T15:53:08.002Z,25.13
2024-05-09T15:55:35.863Z,22.50
2024-05-09T15:58:04.333Z,30.05
2024-05-09T16:03:01.622Z,23.08
2024-05-09T16:05:28.644Z,27.58
2024-05-09T16:07:55.588Z,26.60
2024-05-09T16:10:26.055Z,22.08
2024-05-09T16:12:59.202Z,24.70
2024-05-09T16:15:26.162Z,18.48
2024-05-09T16:17:53.215Z,23.92
2024-05-09T16:20:33.215Z,25.73
2024-05-09T16:23:05.399Z,25.38
2024-05-09T16:25:32.276Z,23.35
2024-05-09T16:27:59.191Z,25.08
2024-05-09T16:30:32.167Z,26.05
2024-05-09T16:33:02.924Z,24.88
2024-05-09T16:35:30.190Z,21.48
2024-05-09T16:37:57.385Z,29.48
2024-05-09T16:40:34.291Z,18.13
2024-05-09T16:43:06.353Z,24.88
2024-05-09T16:45:33.630Z,25.45
2024-05-09T16:48:01.975Z,29.63
2024-05-09T16:50:33.731Z,42.83
2024-05-09T16:53:03.249Z,33.65
2024-05-09T16:55:30.407Z,27.73
2024-05-09T16:57:58.126Z,29.98
2024-05-09T17:00:36.063Z,37.70
2024-05-09T17:03:15.729Z,30.85
2024-05-09T17:05:46.441Z,45.90
2024-05-09T17:08:15.626Z,27.60
2024-05-09T17:10:42.747Z,34.70
2024-05-09T17:13:10.211Z,27.73
2024-05-09T17:15:37.720Z,36.88
2024-05-09T17:18:06.590Z,37.33
2024-05-09T17:20:36.360Z,103.05
2024-05-09T17:23:05.947Z,62.38
2024-05-09T17:25:33.743Z,33.05
2024-05-09T17:28:06.912Z,28.65
2024-05-09T17:30:37.354Z,29.10
2024-05-09T17:33:07.468Z,26.15
2024-05-09T17:35:36.099Z,28.05
2024-05-09T17:38:03.320Z,32.78
2024-05-09T17:40:33.930Z,29.23
2024-05-09T17:43:04.429Z,26.23
2024-05-09T17:45:32.313Z,26.40
2024-05-09T17:47:59.840Z,21.10
2024-05-09T17:50:34.941Z,21.45
2024-05-09T17:53:04.357Z,21.48
2024-05-09T17:55:31.343Z,23.95
2024-05-09T17:57:58.401Z,23.90
2024-05-09T18:00:36.395Z,19.65
2024-05-09T18:03:07.274Z,20.83
2024-05-09T18:05:36.713Z,19.10
2024-05-09T18:08:04.547Z,19.00
2024-05-09T18:10:36.704Z,18.27
2024-05-09T18:13:07.007Z,21.23
2024-05-09T18:15:34.524Z,22.60
2024-05-09T18:18:02.478Z,20.92
2024-05-09T18:20:38.135Z,22.85
2024-05-09T18:23:11.044Z,25.92
2024-05-09T18:25:37.959Z,24.70
2024-05-09T18:28:05.835Z,27.50
2024-05-09T18:30:37.435Z,19.08
2024-05-09T18:33:09.908Z,18.05
2024-05-09T18:35:37.150Z,17.63
2024-05-09T18:38:05.186Z,14.25
2024-05-09T18:40:35.903Z,16.50
2024-05-09T18:43:06.873Z,16.15
2024-05-09T18:45:36.099Z,14.30
2024-05-09T18:48:05.059Z,15.52
2024-05-09T18:50:37.081Z,17.00
2024-05-09T18:53:06.677Z,13.33
2024-05-09T18:55:33.716Z,15.30
2024-05-09T18:58:00.993Z,12.85
2024-05-09T19:00:34.524Z,10.57
2024-05-09T19:03:09.351Z,12.52
2024-05-09T19:05:39.046Z,12.98
2024-05-09T19:08:07.454Z,14.57
2024-05-09T19:10:35.785Z,14.00
2024-05-09T19:13:08.274Z,14.40
2024-05-09T19:15:39.329Z,12.50
2024-05-09T19:18:07.335Z,16.10
2024-05-09T19:20:36.145Z,13.25
2024-05-09T19:23:04.914Z,14.25
2024-05-09T19:25:33.198Z,12.07
2024-05-09T19:28:00.767Z,13.60
2024-05-09T19:30:36.769Z,12.88
2024-05-09T19:33:08.217Z,15.38
2024-05-09T19:35:35.288Z,13.13
2024-05-09T19:38:02.506Z,13.85
2024-05-09T19:40:32.328Z,13.73
2024-05-09T19:43:02.584Z,13.32
2024-05-09T19:45:33.676Z,13.80
2024-05-09T19:48:01.690Z,14.35
2024-05-09T19:50:37.211Z,10.95
2024-05-09T19:53:10.384Z,12.73
2024-05-09T19:55:37.693Z,11.52
2024-05-09T19:58:07.170Z,11.95
2024-05-09T20:00:37.143Z,10.93
2024-05-09T20:03:06.388Z,12.77
2024-05-09T20:05:34.105Z,13.43
2024-05-09T20:08:01.131Z,13.68
2024-05-09T20:10:32.478Z,11.27
2024-05-09T20:13:01.702Z,10.65
2024-05-09T20:15:28.666Z,11.13
2024-05-09T20:17:57.952Z,9.85
2024-05-09T20:20:33.627Z,10.32
2024-05-09T20:23:08.839Z,9.93
2024-05-09T20:25:38.704Z,11.60
2024-05-09T20:28:09.047Z,9.68
2024-05-09T20:30:36.405Z,10.43
2024-05-09T20:33:05.458Z,11.38
2024-05-09T20:35:33.936Z,11.18
2024-05-09T20:38:01.782Z,11.45
2024-05-09T20:40:33.988Z,8.68
2024-05-09T20:43:04.789Z,9.23
2024-05-09T20:45:31.931Z,9.55
2024-05-09T20:47:58.916Z,10.07
2024-05-09T20:50:35.953Z,10.23
2024-05-09T20:53:09.298Z,9.68
2024-05-09T20:55:36.823Z,8.38
2024-05-09T20:58:03.825Z,8.68
2024-05-09T21:00:39.269Z,8.20
2024-05-09T21:03:09.853Z,9.02
2024-05-09T21:05:37.075Z,7.38
2024-05-09T21:08:04.331Z,7.70
2024-05-09T21:10:40.392Z,7.07
2024-05-09T21:13:08.010Z,7.57
2024-05-09T21:15:35.733Z,7.78
2024-05-09T21:18:03.308Z,6.63
2024-05-09T21:20:32.958Z,5.53
2024-05-09T21:23:01.578Z,5.47
2024-05-09T21:25:29.081Z,7.53
2024-05-09T21:27:56.777Z,7.68
2024-05-09T21:30:32.605Z,6.18
2024-05-09T21:33:12.449Z,6.85
2024-05-09T21:35:41.694Z,4.72
2024-05-09T21:38:08.684Z,6.15
2024-05-09T21:40:36.837Z,5.68
2024-05-09T21:43:07.720Z,6.13
2024-05-09T21:45:35.231Z,5.85
2024-05-09T21:48:06.669Z,5.97
2024-05-09T21:50:39.799Z,4.93
2024-05-09T21:55:35.654Z,6.38
2024-05-09T21:58:03.325Z,5.40
2024-05-09T22:00:36.359Z,7.13
2024-05-09T22:03:10.684Z,5.68
2024-05-09T22:05:42.069Z,6.43
2024-05-09T22:08:09.965Z,6.88
2024-05-09T22:10:37.331Z,5.68
2024-05-09T22:13:05.804Z,6.22
2024-05-09T22:15:38.090Z,6.65
2024-05-09T22:18:08.056Z,5.88
2024-05-09T22:20:38.479Z,5.03
2024-05-09T22:23:08.211Z,4.85
2024-05-09T22:25:36.206Z,8.13
2024-05-09T22:28:03.626Z,6.13
2024-05-09T22:30:36.479Z,5.53
2024-05-09T22:33:11.189Z,7.95
2024-05-09T22:35:40.063Z,5.88
2024-05-09T22:38:07.110Z,5.28
2024-05-09T22:40:43.372Z,5.07
2024-05-09T22:43:23.449Z,4.90
2024-05-09T22:45:52.962Z,5.15
2024-05-09T22:48:20.597Z,5.90
2024-05-09T22:50:50.262Z,8.40
2024-05-09T22:53:17.165Z,11.07
2024-05-09T22:55:44.066Z,9.75
2024-05-09T22:58:11.125Z,7.22
2024-05-09T23:00:38.348Z,6.20
2024-05-09T23:03:05.626Z,5.57
2024-05-09T23:05:32.996Z,7.35
2024-05-09T23:08:01.721Z,6.22
2024-05-09T23:10:35.472Z,6.72
2024-05-09T23:13:07.703Z,4.35
2024-05-09T23:15:37.252Z,5.80
2024-05-09T23:18:04.936Z,6.25
2024-05-09T23:20:37.520Z,5.78
2024-05-09T23:23:10.954Z,4.72
2024-05-09T23:25:39.067Z,5.35
2024-05-09T23:28:06.335Z,6.53
2024-05-09T23:30:38.098Z,5.13
2024-05-09T23:33:11.920Z,6.32
2024-05-09T23:35:40.852Z,7.10
2024-05-09T23:38:07.823Z,6.10
2024-05-09T23:40:39.053Z,8.68
2024-05-09T23:43:11.966Z,5.85
2024-05-09T23:45:39.475Z,3.28
2024-05-09T23:48:07.155Z,5.05
2024-05-09T23:50:37.562Z,7.38
2024-05-09T23:53:08.010Z,7.82
2024-05-09T23:55:38.222Z,5.63
2024-05-09T23:58:05.803Z,5.70
